sensor_id;sensor_type;location;lat;lon;timestamp;temperature;humidity
13684;DHT22;6914;53.552;9.908;2023-05-07T00:01:54;8.60;99.90
13684;DHT22;6914;53.552;9.908;2023-05-07T00:04:22;8.60;99.90
13684;DHT22;6914;53.552;9.908;2023-05-07T00:06:51;8.50;99.90
13684;DHT22;6914;53.552;9.908;2023-05-07T00:09:18;8.70;99.90
13684;DHT22;6914;53.552;9.908;2023-05-07T00:11:45;8.40;99.90
13684;DHT22;6914;53.552;9.908;2023-05-07T00:14:13;8.50;99.90
13684;DHT22;6914;53.552;9.908;2023-05-07T00:16:40;8.60;99.90
13684;DHT22;6914;53.552;9.908;2023-05-07T00:19:07;8.60;99.90
13684;DHT22;6914;53.552;9.908;2023-05-07T00:21:35;8.50;99.90
13684;DHT22;6914;53.552;9.908;2023-05-07T00:24:02;8.50;99.90
13684;DHT22;6914;53.552;9.908;2023-05-07T00:26:31;8.50;99.90
13684;DHT22;6914;53.552;9.908;2023-05-07T00:28:57;8.80;99.90
13684;DHT22;6914;53.552;9.908;2023-05-07T00:31:25;8.50;99.90
13684;DHT22;6914;53.552;9.908;2023-05-07T00:33:52;7.40;99.90
13684;DHT22;6914;53.552;9.908;2023-05-07T00:36:19;8.50;99.90
13684;DHT22;6914;53.552;9.908;2023-05-07T00:38:48;8.50;99.90
13684;DHT22;6914;53.552;9.908;2023-05-07T00:41:15;8.50;99.90
13684;DHT22;6914;53.552;9.908;2023-05-07T00:43:42;8.50;99.90
13684;DHT22;6914;53.552;9.908;2023-05-07T00:46:09;8.50;99.90
13684;DHT22;6914;53.552;9.908;2023-05-07T00:48:37;8.50;99.90
13684;DHT22;6914;53.552;9.908;2023-05-07T00:51:04;8.50;99.90
13684;DHT22;6914;53.552;9.908;2023-05-07T00:53:31;8.50;99.90
13684;DHT22;6914;53.552;9.908;2023-05-07T00:55:59;8.80;99.90
13684;DHT22;6914;53.552;9.908;2023-05-07T00:58:27;7.60;99.90
13684;DHT22;6914;53.552;9.908;2023-05-07T01:00:54;8.50;99.90
13684;DHT22;6914;53.552;9.908;2023-05-07T01:03:21;8.60;99.90
13684;DHT22;6914;53.552;9.908;2023-05-07T01:05:48;8.50;99.90
13684;DHT22;6914;53.552;9.908;2023-05-07T01:08:18;8.50;99.90
13684;DHT22;6914;53.552;9.908;2023-05-07T01:10:45;8.50;99.90
13684;DHT22;6914;53.552;9.908;2023-05-07T01:13:14;8.40;99.90
13684;DHT22;6914;53.552;9.908;2023-05-07T01:15:42;8.60;99.90
13684;DHT22;6914;53.552;9.908;2023-05-07T01:18:09;8.40;99.90
13684;DHT22;6914;53.552;9.908;2023-05-07T01:20:36;9.00;99.90
13684;DHT22;6914;53.552;9.908;2023-05-07T01:23:06;8.60;99.90
13684;DHT22;6914;53.552;9.908;2023-05-07T01:25:33;8.60;99.90
13684;DHT22;6914;53.552;9.908;2023-05-07T01:28:00;8.50;99.90
13684;DHT22;6914;53.552;9.908;2023-05-07T01:30:28;8.50;99.90
13684;DHT22;6914;53.552;9.908;2023-05-07T01:32:59;8.60;99.90
13684;DHT22;6914;53.552;9.908;2023-05-07T01:35:30;8.60;99.90
13684;DHT22;6914;53.552;9.908;2023-05-07T01:37:58;8.60;99.90
13684;DHT22;6914;53.552;9.908;2023-05-07T01:40:27;8.60;99.90
13684;DHT22;6914;53.552;9.908;2023-05-07T01:42:54;8.50;99.90
13684;DHT22;6914;53.552;9.908;2023-05-07T01:45:21;8.60;99.90
13684;DHT22;6914;53.552;9.908;2023-05-07T01:47:49;8.50;99.90
13684;DHT22;6914;53.552;9.908;2023-05-07T01:50:18;8.60;99.90
13684;DHT22;6914;53.552;9.908;2023-05-07T01:52:47;8.50;99.90
13684;DHT22;6914;53.552;9.908;2023-05-07T01:55:14;8.60;99.90
13684;DHT22;6914;53.552;9.908;2023-05-07T01:57:42;8.60;99.90
13684;DHT22;6914;53.552;9.908;2023-05-07T02:00:10;8.50;99.90
13684;DHT22;6914;53.552;9.908;2023-05-07T02:02:36;8.60;99.90
13684;DHT22;6914;53.552;9.908;2023-05-07T02:05:04;8.40;99.90
13684;DHT22;6914;53.552;9.908;2023-05-07T02:07:31;7.90;99.90
13684;DHT22;6914;53.552;9.908;2023-05-07T02:09:58;8.60;99.90
13684;DHT22;6914;53.552;9.908;2023-05-07T02:12:25;8.60;99.90
13684;DHT22;6914;53.552;9.908;2023-05-07T02:14:54;8.60;99.90
13684;DHT22;6914;53.552;9.908;2023-05-07T02:17:21;8.50;99.90
13684;DHT22;6914;53.552;9.908;2023-05-07T02:19:48;8.70;99.90
13684;DHT22;6914;53.552;9.908;2023-05-07T02:22:15;9.20;99.90
13684;DHT22;6914;53.552;9.908;2023-05-07T02:24:42;8.70;99.90
13684;DHT22;6914;53.552;9.908;2023-05-07T02:27:09;8.60;99.90
13684;DHT22;6914;53.552;9.908;2023-05-07T02:29:36;8.50;99.90
13684;DHT22;6914;53.552;9.908;2023-05-07T02:32:06;8.70;99.90
13684;DHT22;6914;53.552;9.908;2023-05-07T02:34:33;8.60;99.90
13684;DHT22;6914;53.552;9.908;2023-05-07T02:37:00;8.70;99.90
13684;DHT22;6914;53.552;9.908;2023-05-07T02:39:26;8.60;99.90
13684;DHT22;6914;53.552;9.908;2023-05-07T02:41:56;8.60;99.90
13684;DHT22;6914;53.552;9.908;2023-05-07T02:44:23;8.80;99.90
13684;DHT22;6914;53.552;9.908;2023-05-07T02:46:51;8.70;99.90
13684;DHT22;6914;53.552;9.908;2023-05-07T02:49:19;8.70;99.90
13684;DHT22;6914;53.552;9.908;2023-05-07T02:51:46;8.70;99.90
13684;DHT22;6914;53.552;9.908;2023-05-07T02:54:15;8.70;99.90
13684;DHT22;6914;53.552;9.908;2023-05-07T02:56:43;9.10;99.90
13684;DHT22;6914;53.552;9.908;2023-05-07T02:59:11;8.60;99.90
13684;DHT22;6914;53.552;9.908;2023-05-07T03:01:38;8.70;99.90
13684;DHT22;6914;53.552;9.908;2023-05-07T03:04:05;8.70;99.90
13684;DHT22;6914;53.552;9.908;2023-05-07T03:06:33;8.80;99.90
13684;DHT22;6914;53.552;9.908;2023-05-07T03:09:00;8.70;99.90
13684;DHT22;6914;53.552;9.908;2023-05-07T03:11:27;8.70;99.90
13684;DHT22;6914;53.552;9.908;2023-05-07T03:13:55;8.70;99.90
13684;DHT22;6914;53.552;9.908;2023-05-07T03:16:22;8.60;99.90
13684;DHT22;6914;53.552;9.908;2023-05-07T03:18:48;8.60;99.90
13684;DHT22;6914;53.552;9.908;2023-05-07T03:21:16;8.60;99.90
13684;DHT22;6914;53.552;9.908;2023-05-07T03:23:44;8.40;99.90
13684;DHT22;6914;53.552;9.908;2023-05-07T03:26:11;8.60;99.90
13684;DHT22;6914;53.552;9.908;2023-05-07T03:28:38;8.60;99.90
13684;DHT22;6914;53.552;9.908;2023-05-07T03:31:05;8.70;99.90
13684;DHT22;6914;53.552;9.908;2023-05-07T03:33:33;8.50;99.90
13684;DHT22;6914;53.552;9.908;2023-05-07T03:36:00;7.70;99.90
13684;DHT22;6914;53.552;9.908;2023-05-07T03:38:27;8.50;99.90
13684;DHT22;6914;53.552;9.908;2023-05-07T03:40:57;8.50;99.90
13684;DHT22;6914;53.552;9.908;2023-05-07T03:43:25;8.50;99.90
13684;DHT22;6914;53.552;9.908;2023-05-07T03:45:56;8.50;99.90
13684;DHT22;6914;53.552;9.908;2023-05-07T03:48:26;8.50;99.90
13684;DHT22;6914;53.552;9.908;2023-05-07T03:50:53;8.40;99.90
13684;DHT22;6914;53.552;9.908;2023-05-07T03:53:21;8.50;99.90
13684;DHT22;6914;53.552;9.908;2023-05-07T03:55:48;8.50;99.90
13684;DHT22;6914;53.552;9.908;2023-05-07T03:58:16;8.70;99.90
13684;DHT22;6914;53.552;9.908;2023-05-07T04:00:43;8.50;99.90
13684;DHT22;6914;53.552;9.908;2023-05-07T04:03:10;8.60;99.90
13684;DHT22;6914;53.552;9.908;2023-05-07T04:05:37;8.40;99.90
13684;DHT22;6914;53.552;9.908;2023-05-07T04:08:04;9.10;99.90
13684;DHT22;6914;53.552;9.908;2023-05-07T04:10:31;8.50;99.90
13684;DHT22;6914;53.552;9.908;2023-05-07T04:12:58;8.60;99.90
13684;DHT22;6914;53.552;9.908;2023-05-07T04:15:26;8.50;99.90
13684;DHT22;6914;53.552;9.908;2023-05-07T04:17:54;9.30;99.90
13684;DHT22;6914;53.552;9.908;2023-05-07T04:20:23;8.40;99.90
13684;DHT22;6914;53.552;9.908;2023-05-07T04:22:50;8.50;99.90
13684;DHT22;6914;53.552;9.908;2023-05-07T04:25:18;8.60;99.90
13684;DHT22;6914;53.552;9.908;2023-05-07T04:27:45;8.60;99.90
13684;DHT22;6914;53.552;9.908;2023-05-07T04:30:13;8.60;99.90
13684;DHT22;6914;53.552;9.908;2023-05-07T04:32:42;8.70;99.90
13684;DHT22;6914;53.552;9.908;2023-05-07T04:35:10;8.70;99.90
13684;DHT22;6914;53.552;9.908;2023-05-07T04:37:36;8.70;99.90
13684;DHT22;6914;53.552;9.908;2023-05-07T04:40:07;8.70;99.90
13684;DHT22;6914;53.552;9.908;2023-05-07T04:42:35;8.70;99.90
13684;DHT22;6914;53.552;9.908;2023-05-07T04:45:02;9.90;99.90
13684;DHT22;6914;53.552;9.908;2023-05-07T04:47:30;8.70;99.90
13684;DHT22;6914;53.552;9.908;2023-05-07T04:49:59;8.70;99.90
13684;DHT22;6914;53.552;9.908;2023-05-07T04:52:26;8.80;99.90
13684;DHT22;6914;53.552;9.908;2023-05-07T04:54:58;8.80;99.90
13684;DHT22;6914;53.552;9.908;2023-05-07T04:57:27;8.70;99.90
13684;DHT22;6914;53.552;9.908;2023-05-07T04:59:55;8.70;99.90
13684;DHT22;6914;53.552;9.908;2023-05-07T05:02:25;8.70;99.90
13684;DHT22;6914;53.552;9.908;2023-05-07T05:04:51;8.80;99.90
13684;DHT22;6914;53.552;9.908;2023-05-07T05:07:20;8.80;99.90
13684;DHT22;6914;53.552;9.908;2023-05-07T05:09:48;8.80;99.90
13684;DHT22;6914;53.552;9.908;2023-05-07T05:12:15;8.80;99.90
13684;DHT22;6914;53.552;9.908;2023-05-07T05:14:44;8.90;99.90
13684;DHT22;6914;53.552;9.908;2023-05-07T05:17:11;8.90;99.90
13684;DHT22;6914;53.552;9.908;2023-05-07T05:19:41;8.90;99.90
13684;DHT22;6914;53.552;9.908;2023-05-07T05:22:08;8.90;99.90
13684;DHT22;6914;53.552;9.908;2023-05-07T05:24:36;9.10;99.90
13684;DHT22;6914;53.552;9.908;2023-05-07T05:27:06;8.90;99.90
13684;DHT22;6914;53.552;9.908;2023-05-07T05:29:33;8.90;99.90
13684;DHT22;6914;53.552;9.908;2023-05-07T05:32:00;9.40;99.90
13684;DHT22;6914;53.552;9.908;2023-05-07T05:34:30;8.80;99.90
13684;DHT22;6914;53.552;9.908;2023-05-07T05:37:00;8.80;99.90
13684;DHT22;6914;53.552;9.908;2023-05-07T05:39:27;8.80;99.90
13684;DHT22;6914;53.552;9.908;2023-05-07T05:41:56;8.80;99.90
13684;DHT22;6914;53.552;9.908;2023-05-07T05:44:25;8.70;99.90
13684;DHT22;6914;53.552;9.908;2023-05-07T05:46:52;9.30;99.90
13684;DHT22;6914;53.552;9.908;2023-05-07T05:49:20;8.90;99.90
13684;DHT22;6914;53.552;9.908;2023-05-07T05:51:48;8.80;99.90
13684;DHT22;6914;53.552;9.908;2023-05-07T05:54:15;8.90;99.90
13684;DHT22;6914;53.552;9.908;2023-05-07T05:56:44;8.90;99.90
13684;DHT22;6914;53.552;9.908;2023-05-07T05:59:12;9.00;99.90
13684;DHT22;6914;53.552;9.908;2023-05-07T06:01:39;9.00;99.90
13684;DHT22;6914;53.552;9.908;2023-05-07T06:04:08;9.40;99.90
13684;DHT22;6914;53.552;9.908;2023-05-07T06:06:35;9.00;99.90
13684;DHT22;6914;53.552;9.908;2023-05-07T06:09:03;9.00;99.90
13684;DHT22;6914;53.552;9.908;2023-05-07T06:11:33;8.90;99.90
13684;DHT22;6914;53.552;9.908;2023-05-07T06:14:02;9.00;99.90
13684;DHT22;6914;53.552;9.908;2023-05-07T06:16:31;8.80;99.90
13684;DHT22;6914;53.552;9.908;2023-05-07T06:18:58;9.00;99.90
13684;DHT22;6914;53.552;9.908;2023-05-07T06:21:27;9.10;99.90
13684;DHT22;6914;53.552;9.908;2023-05-07T06:23:54;9.20;99.90
13684;DHT22;6914;53.552;9.908;2023-05-07T06:26:21;9.20;99.90
13684;DHT22;6914;53.552;9.908;2023-05-07T06:28:47;9.30;99.90
13684;DHT22;6914;53.552;9.908;2023-05-07T06:31:15;9.30;99.90
13684;DHT22;6914;53.552;9.908;2023-05-07T06:33:49;9.20;99.90
13684;DHT22;6914;53.552;9.908;2023-05-07T06:36:16;9.20;99.90
13684;DHT22;6914;53.552;9.908;2023-05-07T06:38:43;9.20;99.90
13684;DHT22;6914;53.552;9.908;2023-05-07T06:41:15;9.20;99.90
13684;DHT22;6914;53.552;9.908;2023-05-07T06:43:42;9.30;99.90
13684;DHT22;6914;53.552;9.908;2023-05-07T06:46:09;9.90;99.90
13684;DHT22;6914;53.552;9.908;2023-05-07T06:48:35;9.30;99.90
13684;DHT22;6914;53.552;9.908;2023-05-07T06:51:04;9.30;99.90
13684;DHT22;6914;53.552;9.908;2023-05-07T06:53:31;9.40;99.90
13684;DHT22;6914;53.552;9.908;2023-05-07T06:56:02;9.30;99.90
13684;DHT22;6914;53.552;9.908;2023-05-07T06:58:29;9.40;99.90
13684;DHT22;6914;53.552;9.908;2023-05-07T07:00:56;10.10;99.90
13684;DHT22;6914;53.552;9.908;2023-05-07T07:03:23;9.30;99.90
13684;DHT22;6914;53.552;9.908;2023-05-07T07:05:51;9.40;99.90
13684;DHT22;6914;53.552;9.908;2023-05-07T07:08:19;9.20;99.90
13684;DHT22;6914;53.552;9.908;2023-05-07T07:10:47;9.40;99.90
13684;DHT22;6914;53.552;9.908;2023-05-07T07:13:14;9.50;99.90
13684;DHT22;6914;53.552;9.908;2023-05-07T07:15:41;9.50;99.90
13684;DHT22;6914;53.552;9.908;2023-05-07T07:18:09;9.50;99.90
13684;DHT22;6914;53.552;9.908;2023-05-07T07:20:36;9.60;99.90
13684;DHT22;6914;53.552;9.908;2023-05-07T07:23:05;10.00;99.90
13684;DHT22;6914;53.552;9.908;2023-05-07T07:25:35;9.60;99.90
13684;DHT22;6914;53.552;9.908;2023-05-07T07:28:02;9.70;99.90
13684;DHT22;6914;53.552;9.908;2023-05-07T07:30:31;9.70;99.90
13684;DHT22;6914;53.552;9.908;2023-05-07T07:32:58;8.60;99.90
13684;DHT22;6914;53.552;9.908;2023-05-07T07:35:30;9.80;99.90
13684;DHT22;6914;53.552;9.908;2023-05-07T07:37:57;9.90;99.90
13684;DHT22;6914;53.552;9.908;2023-05-07T07:40:24;9.90;99.90
13684;DHT22;6914;53.552;9.908;2023-05-07T07:42:53;9.90;99.90
13684;DHT22;6914;53.552;9.908;2023-05-07T07:45:23;9.80;99.90
13684;DHT22;6914;53.552;9.908;2023-05-07T07:47:50;9.90;99.90
13684;DHT22;6914;53.552;9.908;2023-05-07T07:50:18;9.90;99.90
13684;DHT22;6914;53.552;9.908;2023-05-07T07:52:45;10.00;99.90
13684;DHT22;6914;53.552;9.908;2023-05-07T07:55:12;10.00;99.90
13684;DHT22;6914;53.552;9.908;2023-05-07T07:57:43;10.10;99.90
13684;DHT22;6914;53.552;9.908;2023-05-07T08:00:13;10.30;99.90
13684;DHT22;6914;53.552;9.908;2023-05-07T08:02:40;10.50;99.90
13684;DHT22;6914;53.552;9.908;2023-05-07T08:05:07;10.40;99.90
13684;DHT22;6914;53.552;9.908;2023-05-07T08:07:34;10.40;99.90
13684;DHT22;6914;53.552;9.908;2023-05-07T08:10:01;10.50;99.90
13684;DHT22;6914;53.552;9.908;2023-05-07T08:12:29;10.30;99.90
13684;DHT22;6914;53.552;9.908;2023-05-07T08:14:56;10.50;99.90
13684;DHT22;6914;53.552;9.908;2023-05-07T08:17:24;10.30;99.90
13684;DHT22;6914;53.552;9.908;2023-05-07T08:19:51;10.40;99.90
13684;DHT22;6914;53.552;9.908;2023-05-07T08:22:18;10.40;99.90
13684;DHT22;6914;53.552;9.908;2023-05-07T08:24:44;10.50;99.90
13684;DHT22;6914;53.552;9.908;2023-05-07T08:27:11;10.40;99.90
13684;DHT22;6914;53.552;9.908;2023-05-07T08:29:38;10.40;99.90
13684;DHT22;6914;53.552;9.908;2023-05-07T08:32:05;10.50;99.90
13684;DHT22;6914;53.552;9.908;2023-05-07T08:34:33;10.50;99.90
13684;DHT22;6914;53.552;9.908;2023-05-07T08:37:00;10.40;99.90
13684;DHT22;6914;53.552;9.908;2023-05-07T08:39:27;10.40;99.90
13684;DHT22;6914;53.552;9.908;2023-05-07T08:41:55;10.30;99.90
13684;DHT22;6914;53.552;9.908;2023-05-07T08:44:26;10.20;99.90
13684;DHT22;6914;53.552;9.908;2023-05-07T08:46:56;10.30;99.90
13684;DHT22;6914;53.552;9.908;2023-05-07T08:49:23;10.30;99.90
13684;DHT22;6914;53.552;9.908;2023-05-07T08:51:51;10.40;99.90
13684;DHT22;6914;53.552;9.908;2023-05-07T08:54:18;10.50;99.90
13684;DHT22;6914;53.552;9.908;2023-05-07T08:56:46;10.70;99.90
13684;DHT22;6914;53.552;9.908;2023-05-07T08:59:14;10.60;99.90
13684;DHT22;6914;53.552;9.908;2023-05-07T09:01:40;10.70;99.90
13684;DHT22;6914;53.552;9.908;2023-05-07T09:04:08;10.60;99.90
13684;DHT22;6914;53.552;9.908;2023-05-07T09:06:35;10.50;99.90
13684;DHT22;6914;53.552;9.908;2023-05-07T09:09:05;10.70;99.90
13684;DHT22;6914;53.552;9.908;2023-05-07T09:11:32;11.00;99.90
13684;DHT22;6914;53.552;9.908;2023-05-07T09:13:58;11.30;99.90
13684;DHT22;6914;53.552;9.908;2023-05-07T09:16:29;11.10;99.90
13684;DHT22;6914;53.552;9.908;2023-05-07T09:18:58;11.10;99.90
13684;DHT22;6914;53.552;9.908;2023-05-07T09:21:25;11.10;99.90
13684;DHT22;6914;53.552;9.908;2023-05-07T09:23:54;10.90;99.90
13684;DHT22;6914;53.552;9.908;2023-05-07T09:26:23;11.00;99.90
13684;DHT22;6914;53.552;9.908;2023-05-07T09:28:50;11.00;99.90
13684;DHT22;6914;53.552;9.908;2023-05-07T09:31:17;11.30;99.90
13684;DHT22;6914;53.552;9.908;2023-05-07T09:33:44;11.40;99.90
13684;DHT22;6914;53.552;9.908;2023-05-07T09:36:11;11.30;99.90
13684;DHT22;6914;53.552;9.908;2023-05-07T09:38:38;11.10;99.90
13684;DHT22;6914;53.552;9.908;2023-05-07T09:41:06;11.20;99.90
13684;DHT22;6914;53.552;9.908;2023-05-07T09:43:36;11.20;99.90
13684;DHT22;6914;53.552;9.908;2023-05-07T09:46:07;11.40;99.90
13684;DHT22;6914;53.552;9.908;2023-05-07T09:48:37;11.40;99.90
13684;DHT22;6914;53.552;9.908;2023-05-07T09:51:11;11.40;99.90
13684;DHT22;6914;53.552;9.908;2023-05-07T09:53:42;11.40;99.90
13684;DHT22;6914;53.552;9.908;2023-05-07T09:56:12;11.40;99.90
13684;DHT22;6914;53.552;9.908;2023-05-07T09:58:42;12.30;99.90
13684;DHT22;6914;53.552;9.908;2023-05-07T10:01:11;11.20;99.90
13684;DHT22;6914;53.552;9.908;2023-05-07T10:03:41;11.50;99.90
13684;DHT22;6914;53.552;9.908;2023-05-07T10:06:08;11.80;99.90
13684;DHT22;6914;53.552;9.908;2023-05-07T10:08:36;11.60;99.90
13684;DHT22;6914;53.552;9.908;2023-05-07T10:11:05;11.70;99.90
13684;DHT22;6914;53.552;9.908;2023-05-07T10:13:33;11.60;99.90
13684;DHT22;6914;53.552;9.908;2023-05-07T10:16:04;11.60;99.90
13684;DHT22;6914;53.552;9.908;2023-05-07T10:18:32;10.70;99.90
13684;DHT22;6914;53.552;9.908;2023-05-07T10:21:04;12.70;99.90
13684;DHT22;6914;53.552;9.908;2023-05-07T10:23:35;12.30;99.90
13684;DHT22;6914;53.552;9.908;2023-05-07T10:26:05;11.70;99.90
13684;DHT22;6914;53.552;9.908;2023-05-07T10:28:37;11.60;99.90
13684;DHT22;6914;53.552;9.908;2023-05-07T10:31:18;11.60;99.90
13684;DHT22;6914;53.552;9.908;2023-05-07T10:33:49;11.30;99.90
13684;DHT22;6914;53.552;9.908;2023-05-07T10:36:18;11.80;99.90
13684;DHT22;6914;53.552;9.908;2023-05-07T10:38:50;11.90;99.90
13684;DHT22;6914;53.552;9.908;2023-05-07T10:41:17;12.00;99.90
13684;DHT22;6914;53.552;9.908;2023-05-07T10:43:46;12.00;99.90
13684;DHT22;6914;53.552;9.908;2023-05-07T10:46:18;12.00;99.90
13684;DHT22;6914;53.552;9.908;2023-05-07T10:49:08;12.20;99.90
13684;DHT22;6914;53.552;9.908;2023-05-07T10:51:37;12.00;99.90
13684;DHT22;6914;53.552;9.908;2023-05-07T10:54:22;12.10;99.90
13684;DHT22;6914;53.552;9.908;2023-05-07T10:56:50;11.80;99.90
13684;DHT22;6914;53.552;9.908;2023-05-07T10:59:36;12.10;99.90
13684;DHT22;6914;53.552;9.908;2023-05-07T11:02:10;12.30;99.90
13684;DHT22;6914;53.552;9.908;2023-05-07T11:04:39;13.30;99.90
13684;DHT22;6914;53.552;9.908;2023-05-07T11:07:29;12.30;99.90
13684;DHT22;6914;53.552;9.908;2023-05-07T11:10:08;12.00;99.90
13684;DHT22;6914;53.552;9.908;2023-05-07T11:12:54;12.50;99.90
13684;DHT22;6914;53.552;9.908;2023-05-07T11:15:42;12.50;99.90
13684;DHT22;6914;53.552;9.908;2023-05-07T11:18:12;12.40;99.90
13684;DHT22;6914;53.552;9.908;2023-05-07T11:20:47;12.50;99.90
13684;DHT22;6914;53.552;9.908;2023-05-07T11:23:54;12.40;99.90
13684;DHT22;6914;53.552;9.908;2023-05-07T11:26:29;13.20;99.90
13684;DHT22;6914;53.552;9.908;2023-05-07T11:28:57;12.90;99.90
13684;DHT22;6914;53.552;9.908;2023-05-07T11:31:27;12.80;99.90
13684;DHT22;6914;53.552;9.908;2023-05-07T11:33:57;13.10;99.90
13684;DHT22;6914;53.552;9.908;2023-05-07T11:36:24;13.30;99.90
13684;DHT22;6914;53.552;9.908;2023-05-07T11:38:52;13.40;99.90
13684;DHT22;6914;53.552;9.908;2023-05-07T11:41:19;13.40;99.90
13684;DHT22;6914;53.552;9.908;2023-05-07T11:43:57;13.70;99.90
13684;DHT22;6914;53.552;9.908;2023-05-07T11:46:43;13.60;99.90
13684;DHT22;6914;53.552;9.908;2023-05-07T11:49:18;13.60;99.90
13684;DHT22;6914;53.552;9.908;2023-05-07T11:51:45;13.80;99.90
13684;DHT22;6914;53.552;9.908;2023-05-07T11:54:16;13.70;99.90
13684;DHT22;6914;53.552;9.908;2023-05-07T11:56:44;13.50;99.90
13684;DHT22;6914;53.552;9.908;2023-05-07T11:59:17;13.70;99.90
13684;DHT22;6914;53.552;9.908;2023-05-07T12:01:46;14.20;99.90
13684;DHT22;6914;53.552;9.908;2023-05-07T12:04:22;13.90;99.90
13684;DHT22;6914;53.552;9.908;2023-05-07T12:07:25;13.90;99.90
13684;DHT22;6914;53.552;9.908;2023-05-07T12:09:54;13.70;99.90
13684;DHT22;6914;53.552;9.908;2023-05-07T12:12:23;14.00;99.90
13684;DHT22;6914;53.552;9.908;2023-05-07T12:14:52;13.80;99.90
13684;DHT22;6914;53.552;9.908;2023-05-07T12:17:20;14.00;99.90
13684;DHT22;6914;53.552;9.908;2023-05-07T12:19:48;14.30;99.90
13684;DHT22;6914;53.552;9.908;2023-05-07T12:22:16;14.40;99.90
13684;DHT22;6914;53.552;9.908;2023-05-07T12:24:44;14.50;99.90
13684;DHT22;6914;53.552;9.908;2023-05-07T12:27:16;14.70;99.90
13684;DHT22;6914;53.552;9.908;2023-05-07T12:29:44;14.70;99.90
13684;DHT22;6914;53.552;9.908;2023-05-07T12:32:13;14.30;99.90
13684;DHT22;6914;53.552;9.908;2023-05-07T12:34:41;14.30;99.90
13684;DHT22;6914;53.552;9.908;2023-05-07T12:37:10;14.40;99.90
13684;DHT22;6914;53.552;9.908;2023-05-07T12:39:38;14.20;99.90
13684;DHT22;6914;53.552;9.908;2023-05-07T12:42:05;14.30;99.90
13684;DHT22;6914;53.552;9.908;2023-05-07T12:44:34;14.40;99.90
13684;DHT22;6914;53.552;9.908;2023-05-07T12:47:06;14.80;99.90
13684;DHT22;6914;53.552;9.908;2023-05-07T12:49:34;14.80;99.90
13684;DHT22;6914;53.552;9.908;2023-05-07T12:52:07;14.70;99.90
13684;DHT22;6914;53.552;9.908;2023-05-07T12:54:37;14.90;99.90
13684;DHT22;6914;53.552;9.908;2023-05-07T12:57:08;14.90;99.90
13684;DHT22;6914;53.552;9.908;2023-05-07T12:59:37;15.00;99.90
13684;DHT22;6914;53.552;9.908;2023-05-07T13:02:09;15.00;99.90
13684;DHT22;6914;53.552;9.908;2023-05-07T13:04:37;14.80;99.90
13684;DHT22;6914;53.552;9.908;2023-05-07T13:07:06;15.20;99.90
13684;DHT22;6914;53.552;9.908;2023-05-07T13:09:34;15.60;99.90
13684;DHT22;6914;53.552;9.908;2023-05-07T13:12:03;15.60;99.90
13684;DHT22;6914;53.552;9.908;2023-05-07T13:14:32;15.40;99.90
13684;DHT22;6914;53.552;9.908;2023-05-07T13:16:59;15.40;99.90
13684;DHT22;6914;53.552;9.908;2023-05-07T13:19:26;15.70;99.90
13684;DHT22;6914;53.552;9.908;2023-05-07T13:21:53;15.60;99.90
13684;DHT22;6914;53.552;9.908;2023-05-07T13:24:20;15.50;99.90
13684;DHT22;6914;53.552;9.908;2023-05-07T13:26:48;15.40;99.90
13684;DHT22;6914;53.552;9.908;2023-05-07T13:29:15;14.50;99.90
13684;DHT22;6914;53.552;9.908;2023-05-07T13:31:42;15.40;99.90
13684;DHT22;6914;53.552;9.908;2023-05-07T13:34:09;15.10;99.90
13684;DHT22;6914;53.552;9.908;2023-05-07T13:36:36;15.40;99.90
13684;DHT22;6914;53.552;9.908;2023-05-07T13:39:06;15.20;99.90
13684;DHT22;6914;53.552;9.908;2023-05-07T13:41:32;15.30;99.90
13684;DHT22;6914;53.552;9.908;2023-05-07T13:44:01;15.70;99.90
13684;DHT22;6914;53.552;9.908;2023-05-07T13:46:31;15.70;99.90
13684;DHT22;6914;53.552;9.908;2023-05-07T13:48:58;15.60;99.90
13684;DHT22;6914;53.552;9.908;2023-05-07T13:51:25;15.60;99.90
13684;DHT22;6914;53.552;9.908;2023-05-07T13:53:52;15.20;99.90
13684;DHT22;6914;53.552;9.908;2023-05-07T13:56:19;16.00;99.90
13684;DHT22;6914;53.552;9.908;2023-05-07T13:58:46;15.50;99.90
13684;DHT22;6914;53.552;9.908;2023-05-07T14:01:15;15.70;99.90
13684;DHT22;6914;53.552;9.908;2023-05-07T14:03:41;15.70;99.90
13684;DHT22;6914;53.552;9.908;2023-05-07T14:06:09;15.70;99.90
13684;DHT22;6914;53.552;9.908;2023-05-07T14:08:35;15.70;99.90
13684;DHT22;6914;53.552;9.908;2023-05-07T14:11:03;15.90;99.90
13684;DHT22;6914;53.552;9.908;2023-05-07T14:13:30;15.70;99.90
13684;DHT22;6914;53.552;9.908;2023-05-07T14:15:57;16.10;99.90
13684;DHT22;6914;53.552;9.908;2023-05-07T14:18:25;16.20;99.90
13684;DHT22;6914;53.552;9.908;2023-05-07T14:20:54;16.20;99.90
13684;DHT22;6914;53.552;9.908;2023-05-07T14:23:21;16.60;99.90
13684;DHT22;6914;53.552;9.908;2023-05-07T14:25:52;16.50;99.90
13684;DHT22;6914;53.552;9.908;2023-05-07T14:28:19;16.00;99.90
13684;DHT22;6914;53.552;9.908;2023-05-07T14:30:46;16.70;99.90
13684;DHT22;6914;53.552;9.908;2023-05-07T14:33:13;15.80;99.90
13684;DHT22;6914;53.552;9.908;2023-05-07T14:35:41;16.10;99.90
13684;DHT22;6914;53.552;9.908;2023-05-07T14:38:12;16.20;99.90
13684;DHT22;6914;53.552;9.908;2023-05-07T14:40:39;16.10;99.90
13684;DHT22;6914;53.552;9.908;2023-05-07T14:43:07;16.20;99.90
13684;DHT22;6914;53.552;9.908;2023-05-07T14:45:34;16.40;99.90
13684;DHT22;6914;53.552;9.908;2023-05-07T14:48:01;16.20;99.90
13684;DHT22;6914;53.552;9.908;2023-05-07T14:50:28;16.40;99.90
13684;DHT22;6914;53.552;9.908;2023-05-07T14:52:57;16.30;99.90
13684;DHT22;6914;53.552;9.908;2023-05-07T14:55:24;16.40;99.90
13684;DHT22;6914;53.552;9.908;2023-05-07T14:57:50;16.80;99.90
13684;DHT22;6914;53.552;9.908;2023-05-07T15:00:18;16.60;99.90
13684;DHT22;6914;53.552;9.908;2023-05-07T15:02:45;16.10;99.90
13684;DHT22;6914;53.552;9.908;2023-05-07T15:05:12;16.00;99.90
13684;DHT22;6914;53.552;9.908;2023-05-07T15:07:40;16.00;99.90
13684;DHT22;6914;53.552;9.908;2023-05-07T15:10:09;16.00;99.90
13684;DHT22;6914;53.552;9.908;2023-05-07T15:12:36;16.10;99.90
13684;DHT22;6914;53.552;9.908;2023-05-07T15:15:04;16.00;99.90
13684;DHT22;6914;53.552;9.908;2023-05-07T15:17:32;14.90;99.90
13684;DHT22;6914;53.552;9.908;2023-05-07T15:19:59;15.70;99.90
13684;DHT22;6914;53.552;9.908;2023-05-07T15:22:26;15.60;99.90
13684;DHT22;6914;53.552;9.908;2023-05-07T15:24:53;15.70;99.90
13684;DHT22;6914;53.552;9.908;2023-05-07T15:27:23;15.70;99.90
13684;DHT22;6914;53.552;9.908;2023-05-07T15:29:50;15.80;99.90
13684;DHT22;6914;53.552;9.908;2023-05-07T15:32:17;16.10;99.90
13684;DHT22;6914;53.552;9.908;2023-05-07T15:34:45;16.40;99.90
13684;DHT22;6914;53.552;9.908;2023-05-07T15:37:11;15.80;99.90
13684;DHT22;6914;53.552;9.908;2023-05-07T15:39:38;15.70;99.90
13684;DHT22;6914;53.552;9.908;2023-05-07T15:42:06;15.60;99.90
13684;DHT22;6914;53.552;9.908;2023-05-07T15:44:35;15.60;99.90
13684;DHT22;6914;53.552;9.908;2023-05-07T15:47:03;15.80;99.90
13684;DHT22;6914;53.552;9.908;2023-05-07T15:49:30;15.70;99.90
13684;DHT22;6914;53.552;9.908;2023-05-07T15:51:57;15.70;99.90
13684;DHT22;6914;53.552;9.908;2023-05-07T15:54:24;15.90;99.90
13684;DHT22;6914;53.552;9.908;2023-05-07T15:56:51;15.70;99.90
13684;DHT22;6914;53.552;9.908;2023-05-07T15:59:18;15.90;99.90
13684;DHT22;6914;53.552;9.908;2023-05-07T16:01:46;15.30;99.90
13684;DHT22;6914;53.552;9.908;2023-05-07T16:04:14;15.80;99.90